Terminal Aerodrome Forecast
Issued by NWS

Home | Current Version | Previous Version | Text Only | Print | Product List | Glossary On
Versions: 1 2 3 4 5 6 7 8 9 10 11 12 13 14
000
FTUS46 KSEW 270839 AAA
TAFHQM
TAF AMD
KHQM 270839Z 2709/2806 24010KT 3SM BR OVC002
     FM271500 24010KT 5SM BR OVC006
     FM271900 24012KT P6SM OVC012
     FM272100 24012KT P6SM BKN020
     FM280500 24012KT P6SM OVC012=

USA.gov is the U.S. government's official web portal to all federal, state and local government web resources and services.